createdAt,value
2022-11-15T00:00:55.187Z,18.77
2022-11-15T00:02:57.148Z,18.73
2022-11-15T00:04:58.964Z,18.75
2022-11-15T00:07:40.336Z,18.38
2022-11-15T00:09:44.796Z,18.92
2022-11-15T00:11:47.721Z,20.90
2022-11-15T00:13:49.497Z,20.52
2022-11-15T00:15:51.432Z,21.30
2022-11-15T00:17:55.212Z,20.60
2022-11-15T00:19:57.277Z,21.23
2022-11-15T00:21:59.091Z,21.25
2022-11-15T00:24:00.902Z,22.33
2022-11-15T00:26:14.122Z,20.60
2022-11-15T00:28:15.974Z,21.00
2022-11-15T00:30:17.930Z,20.95
2022-11-15T00:32:19.768Z,20.73
2022-11-15T00:34:21.593Z,20.55
2022-11-15T00:36:28.516Z,20.95
2022-11-15T00:38:39.900Z,20.38
2022-11-15T00:40:45.860Z,21.00
2022-11-15T00:42:57.286Z,21.33
2022-11-15T00:44:59.149Z,21.50
2022-11-15T00:47:01.945Z,21.45
2022-11-15T00:49:04.756Z,20.05
2022-11-15T00:51:08.861Z,19.50
2022-11-15T00:53:13.826Z,20.25
2022-11-15T00:55:18.326Z,21.33
2022-11-15T00:57:20.136Z,20.30
2022-11-15T00:59:21.937Z,20.38
2022-11-15T01:01:24.767Z,20.65
2022-11-15T01:03:26.619Z,19.80
2022-11-15T01:05:30.486Z,20.42
2022-11-15T01:07:34.631Z,20.80
2022-11-15T01:09:36.482Z,20.10
2022-11-15T01:11:38.308Z,20.60
2022-11-15T01:13:41.118Z,19.50
2022-11-15T01:15:48.588Z,20.20
2022-11-15T01:17:56.583Z,19.30
2022-11-15T01:19:59.431Z,19.88
2022-11-15T01:22:01.308Z,19.98
2022-11-15T01:24:03.161Z,20.20
2022-11-15T01:26:08.442Z,21.15
2022-11-15T01:28:16.103Z,21.08
2022-11-15T01:30:17.953Z,20.38
2022-11-15T01:32:19.813Z,20.50
2022-11-15T01:34:22.354Z,21.48
2022-11-15T01:36:26.294Z,21.52
2022-11-15T01:38:29.176Z,22.85
2022-11-15T01:40:31.024Z,21.92
2022-11-15T01:42:38.953Z,21.55
2022-11-15T01:44:54.358Z,20.90
2022-11-15T01:47:02.396Z,22.48
2022-11-15T01:49:12.781Z,22.02
2022-11-15T01:51:23.694Z,21.30
2022-11-15T01:53:27.373Z,22.08
2022-11-15T01:55:30.332Z,21.50
2022-11-15T01:57:32.399Z,22.63
2022-11-15T01:59:36.438Z,21.08
2022-11-15T02:01:42.108Z,21.67
2022-11-15T02:03:52.611Z,21.08
2022-11-15T02:05:55.125Z,20.98
2022-11-15T02:08:01.305Z,21.98
2022-11-15T02:10:12.143Z,21.67
2022-11-15T02:12:26.373Z,21.02
2022-11-15T02:14:29.375Z,19.98
2022-11-15T02:16:38.126Z,20.52
2022-11-15T02:18:47.355Z,21.08
2022-11-15T02:21:10.424Z,20.08
2022-11-15T02:23:27.075Z,20.65
2022-11-15T02:25:47.134Z,21.88
2022-11-15T02:28:32.471Z,20.92
2022-11-15T02:31:23.911Z,20.65
2022-11-15T02:33:35.758Z,21.20
2022-11-15T02:36:07.325Z,22.55
2022-11-15T02:38:40.975Z,22.10
2022-11-15T02:41:00.615Z,21.45
2022-11-15T02:43:29.627Z,20.58
2022-11-15T02:45:38.716Z,20.77
2022-11-15T02:47:47.300Z,20.90
2022-11-15T02:49:54.973Z,20.65
2022-11-15T02:51:57.251Z,20.13
2022-11-15T02:54:06.837Z,21.15
2022-11-15T02:56:10.765Z,20.45
2022-11-15T02:58:37.001Z,20.40
2022-11-15T03:01:14.226Z,21.17
2022-11-15T03:03:53.623Z,21.00
2022-11-15T03:06:00.571Z,20.40
2022-11-15T03:08:06.595Z,20.35
2022-11-15T03:10:09.408Z,20.00
2022-11-15T03:12:25.145Z,19.38
2022-11-15T03:14:41.261Z,21.17
2022-11-15T03:17:03.034Z,20.55
2022-11-15T03:21:31.509Z,19.33
2022-11-15T03:23:35.038Z,20.38
2022-11-15T03:25:42.294Z,20.00
2022-11-15T03:27:48.924Z,20.55
2022-11-15T03:29:59.128Z,19.10
2022-11-15T03:32:13.686Z,19.67
2022-11-15T03:34:40.571Z,20.65
2022-11-15T03:36:44.837Z,20.20
2022-11-15T03:38:47.716Z,20.17
2022-11-15T03:41:35.602Z,21.25
2022-11-15T03:43:58.181Z,19.77
2022-11-15T03:46:14.118Z,21.30
2022-11-15T03:48:21.493Z,20.50
2022-11-15T03:50:27.093Z,19.52
2022-11-15T03:52:35.414Z,21.35
2022-11-15T03:54:37.403Z,21.20
2022-11-15T03:56:39.234Z,21.35
2022-11-15T03:58:42.108Z,20.88
2022-11-15T04:00:46.017Z,19.73
2022-11-15T04:02:48.823Z,22.08
2022-11-15T04:04:55.703Z,21.67
2022-11-15T04:06:57.546Z,20.23
2022-11-15T04:08:59.426Z,22.42
2022-11-15T04:11:04.308Z,22.73
2022-11-15T04:13:07.193Z,21.45
2022-11-15T04:15:14.461Z,21.55
2022-11-15T04:17:16.263Z,22.90
2022-11-15T04:19:36.514Z,23.95
2022-11-15T04:21:56.744Z,22.58
2022-11-15T04:24:08.471Z,24.75
2022-11-15T04:26:20.541Z,23.02
2022-11-15T04:28:28.836Z,23.88
2022-11-15T04:30:37.355Z,23.23
2022-11-15T04:32:39.149Z,22.75
2022-11-15T04:34:40.951Z,20.98
2022-11-15T04:37:01.490Z,20.35
2022-11-15T04:39:03.738Z,22.02
2022-11-15T04:41:05.723Z,21.23
2022-11-15T04:43:09.502Z,20.20
2022-11-15T04:45:17.198Z,22.13
2022-11-15T04:47:20.004Z,21.58
2022-11-15T04:49:22.003Z,21.20
2022-11-15T04:51:23.788Z,22.38
2022-11-15T04:53:34.693Z,21.38
2022-11-15T04:55:37.663Z,23.30
2022-11-15T04:57:39.575Z,23.15
2022-11-15T04:59:41.318Z,23.63
2022-11-15T05:01:49.125Z,23.58
2022-11-15T05:04:10.375Z,23.95
2022-11-15T05:06:14.196Z,21.65
2022-11-15T05:08:17.005Z,22.35
2022-11-15T05:10:18.849Z,20.77
2022-11-15T05:12:20.606Z,20.50
2022-11-15T05:14:30.424Z,20.73
2022-11-15T05:16:38.441Z,18.38
2022-11-15T05:18:43.182Z,17.88
2022-11-15T05:20:52.836Z,19.42
2022-11-15T05:22:56.668Z,19.95
2022-11-15T05:24:58.473Z,19.17
2022-11-15T05:27:00.315Z,18.00
2022-11-15T05:29:04.150Z,18.60
2022-11-15T05:31:11.401Z,18.98
2022-11-15T05:33:13.234Z,19.08
2022-11-15T05:35:27.285Z,18.25
2022-11-15T05:37:31.490Z,17.98
2022-11-15T05:39:34.480Z,17.70
2022-11-15T05:41:45.543Z,17.65
2022-11-15T05:43:50.070Z,18.85
2022-11-15T05:45:54.974Z,18.42
2022-11-15T05:48:02.155Z,17.55
2022-11-15T05:50:04.419Z,17.80
2022-11-15T05:52:17.899Z,18.63
2022-11-15T05:54:22.801Z,18.10
2022-11-15T05:56:40.498Z,17.80
2022-11-15T05:58:43.506Z,18.15
2022-11-15T06:00:46.569Z,18.75
2022-11-15T06:02:49.387Z,19.98
2022-11-15T06:04:51.371Z,18.23
2022-11-15T06:07:01.107Z,19.17
2022-11-15T06:09:04.983Z,20.20
2022-11-15T06:11:07.686Z,19.60
2022-11-15T06:13:15.520Z,19.33
2022-11-15T06:15:19.315Z,19.88
2022-11-15T06:17:21.163Z,17.95
2022-11-15T06:19:28.918Z,19.05
2022-11-15T06:21:33.793Z,18.90
2022-11-15T06:23:36.635Z,17.88
2022-11-15T06:25:41.619Z,16.70
2022-11-15T06:27:56.590Z,17.00
2022-11-15T06:29:59.489Z,16.25
2022-11-15T06:32:01.414Z,16.60
2022-11-15T06:34:09.180Z,18.33
2022-11-15T06:36:18.218Z,17.67
2022-11-15T06:38:20.194Z,18.30
2022-11-15T06:40:22.108Z,17.67
2022-11-15T06:42:23.944Z,19.85
2022-11-15T06:44:35.800Z,18.50
2022-11-15T06:46:43.307Z,18.52
2022-11-15T06:48:54.857Z,16.88
2022-11-15T06:53:14.951Z,15.47
2022-11-15T06:55:19.003Z,17.08
2022-11-15T06:57:20.807Z,16.77
2022-11-15T06:59:22.633Z,15.05
2022-11-15T07:01:25.570Z,14.95
2022-11-15T07:03:28.838Z,16.90
2022-11-15T07:05:38.114Z,16.13
2022-11-15T07:07:42.344Z,15.40
2022-11-15T07:09:52.141Z,16.63
2022-11-15T07:11:54.119Z,15.50
2022-11-15T07:13:57.974Z,15.15
2022-11-15T07:16:11.770Z,15.30
2022-11-15T07:18:21.829Z,16.40
2022-11-15T07:20:31.989Z,16.98
2022-11-15T07:22:43.927Z,16.38
2022-11-15T07:24:55.084Z,16.40
2022-11-15T07:27:04.292Z,15.45
2022-11-15T07:29:07.329Z,17.08
2022-11-15T07:31:09.997Z,16.23
2022-11-15T07:33:11.853Z,16.13
2022-11-15T07:35:14.747Z,16.77
2022-11-15T07:37:18.121Z,16.70
2022-11-15T07:39:20.982Z,16.58
2022-11-15T07:41:31.143Z,15.27
2022-11-15T07:43:35.474Z,16.63
2022-11-15T07:45:43.339Z,16.90
2022-11-15T07:47:50.669Z,15.88
2022-11-15T07:49:59.716Z,15.00
2022-11-15T07:52:01.666Z,16.25
2022-11-15T07:54:04.547Z,16.80
2022-11-15T07:56:13.268Z,15.07
2022-11-15T07:58:19.350Z,15.85
2022-11-15T08:00:22.374Z,16.67
2022-11-15T08:02:29.181Z,16.35
2022-11-15T08:04:34.434Z,17.02
2022-11-15T08:06:37.375Z,16.30
2022-11-15T08:08:41.259Z,15.77
2022-11-15T08:10:45.391Z,15.65
2022-11-15T08:12:48.345Z,16.40
2022-11-15T08:14:57.584Z,17.02
2022-11-15T08:17:01.421Z,16.70
2022-11-15T08:19:03.326Z,17.20
2022-11-15T08:21:07.363Z,16.65
2022-11-15T08:23:18.360Z,17.38
2022-11-15T08:25:24.641Z,20.15
2022-11-15T08:27:34.688Z,17.42
2022-11-15T08:29:47.008Z,18.75
2022-11-15T08:31:48.929Z,20.00
2022-11-15T08:33:50.881Z,19.83
2022-11-15T08:36:03.501Z,17.13
2022-11-15T08:38:11.248Z,15.30
2022-11-15T08:40:14.985Z,15.40
2022-11-15T08:42:39.141Z,16.98
2022-11-15T08:44:45.074Z,17.70
2022-11-15T08:46:47.540Z,16.88
2022-11-15T08:48:49.531Z,15.90
2022-11-15T08:50:56.485Z,16.55
2022-11-15T08:53:09.616Z,16.25
2022-11-15T08:55:17.486Z,17.50
2022-11-15T08:57:31.459Z,16.98
2022-11-15T08:59:41.351Z,16.85
2022-11-15T09:01:52.563Z,17.58
2022-11-15T09:03:54.978Z,19.95
2022-11-15T09:06:00.669Z,20.27
2022-11-15T09:08:32.426Z,19.42
2022-11-15T09:10:37.766Z,18.65
2022-11-15T09:12:40.707Z,16.80
2022-11-15T09:14:43.937Z,15.95
2022-11-15T09:16:46.794Z,17.38
2022-11-15T09:18:51.780Z,18.98
2022-11-15T09:21:00.693Z,19.35
2022-11-15T09:23:05.149Z,18.25
2022-11-15T09:25:11.156Z,17.83
2022-11-15T09:27:15.324Z,17.42
2022-11-15T09:29:18.867Z,20.00
2022-11-15T09:31:22.416Z,19.38
2022-11-15T09:33:24.422Z,18.58
2022-11-15T09:35:38.905Z,18.20
2022-11-15T09:37:41.832Z,18.98
2022-11-15T09:40:10.834Z,18.00
2022-11-15T09:42:46.621Z,19.02
2022-11-15T09:44:54.226Z,18.48
2022-11-15T09:47:32.228Z,19.20
2022-11-15T09:49:34.478Z,19.00
2022-11-15T09:51:51.638Z,18.92
2022-11-15T09:56:46.461Z,20.52
2022-11-15T09:59:16.007Z,19.17
2022-11-15T10:01:48.957Z,21.63
2022-11-15T10:04:05.565Z,19.30
2022-11-15T10:06:40.066Z,19.35
2022-11-15T10:09:11.341Z,19.17
2022-11-15T10:11:37.416Z,19.50
2022-11-15T10:13:51.717Z,19.27
2022-11-15T10:15:58.391Z,19.67
2022-11-15T10:18:50.845Z,19.58
2022-11-15T10:21:37.912Z,20.17
2022-11-15T10:23:54.201Z,19.17
2022-11-15T10:26:18.195Z,20.20
2022-11-15T10:28:33.603Z,19.63
2022-11-15T10:30:49.692Z,19.23
2022-11-15T10:32:51.691Z,19.17
2022-11-15T10:34:54.657Z,19.05
2022-11-15T10:37:07.451Z,20.70
2022-11-15T10:39:15.690Z,19.75
2022-11-15T10:41:44.003Z,19.42
2022-11-15T10:44:19.934Z,19.70
2022-11-15T10:48:51.325Z,19.27
2022-11-15T10:50:55.006Z,20.23
2022-11-15T10:52:57.060Z,20.35
2022-11-15T10:55:13.997Z,21.40
2022-11-15T10:57:22.399Z,20.52
2022-11-15T10:59:39.244Z,21.23
2022-11-15T11:01:49.943Z,21.55
2022-11-15T11:04:10.062Z,19.95
2022-11-15T11:06:16.346Z,21.35
2022-11-15T11:08:25.637Z,20.65
2022-11-15T11:12:50.537Z,18.75
2022-11-15T11:14:52.538Z,18.13
2022-11-15T11:17:30.628Z,18.73
2022-11-15T11:19:54.109Z,18.38
2022-11-15T11:22:29.658Z,20.20
2022-11-15T11:24:35.624Z,18.58
2022-11-15T11:26:54.245Z,20.20
2022-11-15T11:29:17.971Z,19.73
2022-11-15T11:31:34.931Z,19.52
2022-11-15T11:33:55.421Z,20.08
2022-11-15T11:36:19.329Z,17.77
2022-11-15T11:38:24.136Z,17.42
2022-11-15T11:40:44.655Z,17.27
2022-11-15T11:42:59.365Z,19.00
2022-11-15T11:45:25.857Z,20.73
2022-11-15T11:47:41.414Z,17.50
2022-11-15T11:49:52.406Z,18.88
2022-11-15T11:52:04.671Z,19.35
2022-11-15T11:54:20.693Z,18.58
2022-11-15T11:56:39.592Z,18.48
2022-11-15T11:58:47.325Z,19.05
2022-11-15T12:01:12.727Z,19.35
2022-11-15T12:03:43.415Z,19.13
2022-11-15T12:06:20.593Z,18.48
2022-11-15T12:08:34.622Z,19.05
2022-11-15T12:10:38.782Z,20.05
2022-11-15T12:13:05.569Z,20.48
2022-11-15T12:15:10.228Z,20.92
2022-11-15T12:17:13.103Z,20.50
2022-11-15T12:19:15.062Z,20.38
2022-11-15T12:21:49.231Z,19.75
2022-11-15T12:23:56.090Z,22.00
2022-11-15T12:25:57.992Z,21.50
2022-11-15T12:28:25.656Z,20.83
2022-11-15T12:30:42.418Z,21.63
2022-11-15T12:33:00.195Z,20.65
2022-11-15T12:35:04.748Z,22.45
2022-11-15T12:37:34.690Z,22.65
2022-11-15T12:40:11.039Z,22.10
2022-11-15T12:42:13.894Z,23.13
2022-11-15T12:44:40.237Z,22.58
2022-11-15T12:46:42.451Z,21.38
2022-11-15T12:48:44.349Z,23.52
2022-11-15T12:50:54.659Z,23.40
2022-11-15T12:53:24.971Z,21.35
2022-11-15T12:55:33.544Z,21.58
2022-11-15T12:57:40.587Z,22.98
2022-11-15T13:00:07.844Z,22.05
2022-11-15T13:02:20.501Z,22.67
2022-11-15T13:04:25.998Z,21.90
2022-11-15T13:06:51.257Z,23.33
2022-11-15T13:08:53.267Z,21.70
2022-11-15T13:10:55.236Z,22.45
2022-11-15T13:13:02.151Z,24.27
2022-11-15T13:15:13.045Z,22.90
2022-11-15T13:17:23.680Z,24.55
2022-11-15T13:19:25.998Z,23.80
2022-11-15T13:21:46.412Z,22.95
2022-11-15T13:23:53.993Z,24.05
2022-11-15T13:26:25.968Z,22.58
2022-11-15T13:28:33.473Z,24.52
2022-11-15T13:30:38.013Z,23.20
2022-11-15T13:32:39.886Z,23.50
2022-11-15T13:34:52.325Z,24.13
2022-11-15T13:36:55.171Z,23.98
2022-11-15T13:39:07.792Z,25.52
2022-11-15T13:41:19.962Z,24.75
2022-11-15T13:43:25.223Z,25.52
2022-11-15T13:45:28.124Z,24.55
2022-11-15T13:47:30.904Z,25.33
2022-11-15T13:49:34.822Z,23.60
2022-11-15T13:51:45.746Z,24.77
2022-11-15T13:53:56.531Z,24.63
2022-11-15T13:55:59.641Z,24.60
2022-11-15T13:58:09.098Z,25.35
2022-11-15T14:00:33.757Z,26.00
2022-11-15T14:02:37.480Z,27.42
2022-11-15T14:04:47.531Z,25.92
2022-11-15T14:06:53.812Z,26.63
2022-11-15T14:09:00.614Z,25.85
2022-11-15T14:11:20.344Z,25.40
2022-11-15T14:13:31.002Z,25.98
2022-11-15T14:15:39.513Z,26.60
2022-11-15T14:17:44.488Z,26.20
2022-11-15T14:19:52.353Z,26.50
2022-11-15T14:22:17.591Z,26.50
2022-11-15T14:24:22.433Z,27.20
2022-11-15T14:26:34.294Z,25.70
2022-11-15T14:28:39.267Z,25.73
2022-11-15T14:30:48.333Z,25.02
2022-11-15T14:32:52.001Z,26.02
2022-11-15T14:35:00.134Z,25.30
2022-11-15T14:37:02.020Z,25.17
2022-11-15T14:39:06.361Z,26.38
2022-11-15T14:41:20.215Z,25.90
2022-11-15T14:43:22.185Z,26.17
2022-11-15T14:45:24.136Z,27.05
2022-11-15T14:47:26.074Z,26.73
2022-11-15T14:49:27.944Z,25.52
2022-11-15T14:51:29.789Z,25.77
2022-11-15T14:53:31.712Z,25.30
2022-11-15T14:55:37.339Z,25.17
2022-11-15T14:57:39.221Z,24.00
2022-11-15T14:59:41.178Z,24.58
2022-11-15T15:01:43.177Z,25.20
2022-11-15T15:03:45.410Z,23.10
2022-11-15T15:05:47.355Z,24.00
2022-11-15T15:07:50.100Z,25.48
2022-11-15T15:09:52.095Z,24.50
2022-11-15T15:11:55.822Z,24.88
2022-11-15T15:14:01.587Z,25.17
2022-11-15T15:16:03.600Z,26.27
2022-11-15T15:18:06.312Z,26.05
2022-11-15T15:20:09.195Z,28.27
2022-11-15T15:22:15.834Z,29.13
2022-11-15T15:24:17.707Z,27.83
2022-11-15T15:26:19.551Z,27.70
2022-11-15T15:28:21.429Z,26.90
2022-11-15T15:30:25.007Z,27.23
2022-11-15T15:32:26.953Z,27.63
2022-11-15T15:34:28.832Z,26.90
2022-11-15T15:36:31.700Z,28.48
2022-11-15T15:38:34.006Z,28.23
2022-11-15T15:40:36.174Z,27.38
2022-11-15T15:42:38.225Z,27.52
2022-11-15T15:44:40.326Z,26.45
2022-11-15T15:46:43.245Z,26.23
2022-11-15T15:48:46.218Z,24.88
2022-11-15T15:50:48.510Z,25.55
2022-11-15T15:52:51.565Z,25.35
2022-11-15T15:54:53.450Z,24.00
2022-11-15T15:56:56.387Z,23.90
2022-11-15T15:58:58.408Z,25.02
2022-11-15T16:01:00.397Z,24.63
2022-11-15T16:03:02.507Z,25.02
2022-11-15T16:05:04.756Z,24.05
2022-11-15T16:07:07.507Z,25.10
2022-11-15T16:09:16.076Z,23.73
2022-11-15T16:11:18.202Z,23.60
2022-11-15T16:13:20.655Z,24.15
2022-11-15T16:15:26.588Z,23.98
2022-11-15T16:17:34.472Z,24.55
2022-11-15T16:19:36.617Z,24.60
2022-11-15T16:21:38.861Z,26.17
2022-11-15T16:23:40.809Z,23.98
2022-11-15T16:25:50.110Z,22.90
2022-11-15T16:27:52.345Z,23.65
2022-11-15T16:29:54.219Z,26.13
2022-11-15T16:31:56.097Z,26.35
2022-11-15T16:33:57.979Z,28.67
2022-11-15T16:36:01.287Z,25.23
2022-11-15T16:38:03.293Z,27.05
2022-11-15T16:40:23.959Z,29.38
2022-11-15T16:42:27.946Z,28.25
2022-11-15T16:44:30.286Z,26.33
2022-11-15T16:46:33.062Z,26.92
2022-11-15T16:48:35.444Z,27.27
2022-11-15T16:50:40.637Z,25.67
2022-11-15T16:52:43.009Z,25.80
2022-11-15T16:54:44.947Z,25.83
2022-11-15T16:56:48.128Z,26.40
2022-11-15T16:58:51.689Z,24.52
2022-11-15T17:00:57.520Z,22.58
2022-11-15T17:02:59.661Z,24.33
2022-11-15T17:05:05.647Z,21.30
2022-11-15T17:07:12.641Z,22.13
2022-11-15T17:09:25.831Z,21.38
2022-11-15T17:11:27.861Z,22.55
2022-11-15T17:13:32.451Z,23.05
2022-11-15T17:15:36.654Z,22.63
2022-11-15T17:17:39.270Z,23.95
2022-11-15T17:19:42.834Z,26.40
2022-11-15T17:21:45.804Z,25.33
2022-11-15T17:23:48.882Z,26.50
2022-11-15T17:26:17.646Z,28.73
2022-11-15T17:28:25.765Z,29.88
2022-11-15T17:30:27.659Z,28.73
2022-11-15T17:32:29.574Z,29.00
2022-11-15T17:34:31.617Z,29.98
2022-11-15T17:36:39.556Z,29.55
2022-11-15T17:38:50.512Z,29.83
2022-11-15T17:41:12.673Z,30.42
2022-11-15T17:43:17.436Z,28.50
2022-11-15T17:45:22.501Z,30.10
2022-11-15T17:47:24.339Z,30.75
2022-11-15T17:49:26.284Z,29.65
2022-11-15T17:51:28.327Z,29.73
2022-11-15T17:53:43.244Z,26.27
2022-11-15T17:55:45.175Z,28.67
2022-11-15T17:57:47.100Z,28.00
2022-11-15T17:59:49.378Z,27.90
2022-11-15T18:01:54.341Z,28.38
2022-11-15T18:04:00.353Z,27.58
2022-11-15T18:06:11.997Z,29.92
2022-11-15T18:08:22.268Z,29.60
2022-11-15T18:10:24.512Z,30.83
2022-11-15T18:12:26.522Z,30.02
2022-11-15T18:14:29.723Z,30.75
2022-11-15T18:16:41.134Z,26.55
2022-11-15T18:18:44.521Z,27.27
2022-11-15T18:20:46.508Z,27.98
2022-11-15T18:22:49.808Z,27.02
2022-11-15T18:24:52.024Z,26.73
2022-11-15T18:26:56.328Z,27.42
2022-11-15T18:29:05.843Z,26.05
2022-11-15T18:31:18.740Z,25.65
2022-11-15T18:33:28.484Z,25.98
2022-11-15T18:35:30.628Z,24.50
2022-11-15T18:37:33.873Z,25.25
2022-11-15T18:39:36.030Z,25.83
2022-11-15T18:41:38.478Z,26.30
2022-11-15T18:43:42.497Z,26.60
2022-11-15T18:45:51.161Z,26.63
2022-11-15T18:47:53.504Z,25.40
2022-11-15T18:49:58.741Z,24.95
2022-11-15T18:52:01.297Z,23.90
2022-11-15T18:54:11.810Z,22.65
2022-11-15T18:56:19.017Z,22.30
2022-11-15T18:58:21.021Z,22.20
2022-11-15T19:00:26.316Z,22.60
2022-11-15T19:02:30.368Z,21.55
2022-11-15T19:04:33.528Z,22.75
2022-11-15T19:06:39.916Z,21.55
2022-11-15T19:08:43.823Z,22.40
2022-11-15T19:10:45.954Z,22.23
2022-11-15T19:12:48.299Z,20.95
2022-11-15T19:14:54.833Z,21.00
2022-11-15T19:17:02.407Z,22.17
2022-11-15T19:19:08.101Z,21.40
2022-11-15T19:21:15.829Z,20.40
2022-11-15T19:23:20.453Z,19.90
2022-11-15T19:25:23.420Z,21.25
2022-11-15T19:27:25.677Z,20.85
2022-11-15T19:29:37.489Z,20.52
2022-11-15T19:31:44.097Z,20.42
2022-11-15T19:33:46.868Z,21.30
2022-11-15T19:35:50.267Z,21.42
2022-11-15T19:38:00.006Z,20.15
2022-11-15T19:40:02.377Z,21.40
2022-11-15T19:42:04.426Z,20.98
2022-11-15T19:44:07.318Z,22.25
2022-11-15T19:46:13.420Z,19.20
2022-11-15T19:48:17.573Z,19.38
2022-11-15T19:50:22.917Z,19.85
2022-11-15T19:52:25.158Z,20.10
2022-11-15T19:54:33.694Z,20.05
2022-11-15T19:56:36.403Z,19.88
2022-11-15T19:58:39.577Z,21.35
2022-11-15T20:00:41.686Z,20.17
2022-11-15T20:02:44.668Z,20.27
2022-11-15T20:04:46.674Z,20.92
2022-11-15T20:06:48.757Z,18.98
2022-11-15T20:08:50.798Z,17.55
2022-11-15T20:10:52.970Z,18.48
2022-11-15T20:12:54.903Z,18.23
2022-11-15T20:14:57.187Z,19.60
2022-11-15T20:17:00.268Z,19.13
2022-11-15T20:19:02.196Z,16.95
2022-11-15T20:21:07.610Z,15.30
2022-11-15T20:23:10.637Z,15.52
2022-11-15T20:25:13.668Z,16.65
2022-11-15T20:27:16.203Z,16.77
2022-11-15T20:29:18.454Z,16.00
2022-11-15T20:31:22.359Z,16.15
2022-11-15T20:33:25.106Z,17.00
2022-11-15T20:35:28.846Z,17.48
2022-11-15T20:37:30.991Z,17.75
2022-11-15T20:39:33.280Z,17.50
2022-11-15T20:41:35.269Z,18.10
2022-11-15T20:43:37.419Z,17.40
2022-11-15T20:45:40.547Z,17.38
2022-11-15T20:47:42.533Z,15.98
2022-11-15T20:49:44.520Z,16.17
2022-11-15T20:51:46.439Z,15.55
2022-11-15T20:53:50.180Z,15.27
2022-11-15T20:55:57.355Z,15.20
2022-11-15T20:57:59.622Z,13.73
2022-11-15T21:00:05.657Z,12.82
2022-11-15T21:02:10.692Z,14.13
2022-11-15T21:04:21.393Z,11.55
2022-11-15T21:06:30.906Z,12.70
2022-11-15T21:08:53.569Z,12.07
2022-11-15T21:11:14.558Z,12.00
2022-11-15T21:13:16.675Z,11.23
2022-11-15T21:15:19.076Z,11.73
2022-11-15T21:17:26.546Z,12.80
2022-11-15T21:19:38.975Z,12.98
2022-11-15T21:21:43.879Z,13.65
2022-11-15T21:23:53.182Z,14.30
2022-11-15T21:25:55.800Z,15.15
2022-11-15T21:28:01.715Z,15.98
2022-11-15T21:30:06.326Z,16.17
2022-11-15T21:32:14.569Z,15.70
2022-11-15T21:34:17.583Z,14.57
2022-11-15T21:36:19.833Z,15.98
2022-11-15T21:38:27.064Z,14.07
2022-11-15T21:40:30.117Z,13.13
2022-11-15T21:42:39.374Z,13.90
2022-11-15T21:44:42.381Z,14.45
2022-11-15T21:46:44.629Z,13.52
2022-11-15T21:48:48.502Z,14.57
2022-11-15T21:51:01.996Z,14.63
2022-11-15T21:53:04.152Z,13.65
2022-11-15T21:55:06.277Z,13.95
2022-11-15T21:57:08.538Z,14.20
2022-11-15T21:59:16.222Z,13.88
2022-11-15T22:01:42.730Z,12.82
2022-11-15T22:03:46.242Z,12.85
2022-11-15T22:05:49.097Z,13.88
2022-11-15T22:07:54.526Z,12.48
2022-11-15T22:10:00.001Z,12.77
2022-11-15T22:12:07.168Z,12.85
2022-11-15T22:14:09.256Z,12.52
2022-11-15T22:16:11.538Z,13.10
2022-11-15T22:18:14.319Z,13.70
2022-11-15T22:20:42.920Z,12.88
2022-11-15T22:22:45.033Z,12.23
2022-11-15T22:24:48.673Z,10.77
2022-11-15T22:26:52.575Z,11.30
2022-11-15T22:28:54.491Z,10.38
2022-11-15T22:30:57.289Z,9.55
2022-11-15T22:33:03.249Z,10.13
2022-11-15T22:37:21.568Z,9.70
2022-11-15T22:39:24.649Z,9.80
2022-11-15T22:41:27.660Z,10.68
2022-11-15T22:43:29.984Z,10.25
2022-11-15T22:45:46.643Z,10.45
2022-11-15T22:47:48.678Z,10.70
2022-11-15T22:49:51.580Z,11.02
2022-11-15T22:51:53.441Z,10.30
2022-11-15T22:54:10.415Z,10.38
2022-11-15T22:56:20.161Z,10.55
2022-11-15T22:58:28.325Z,10.10
2022-11-15T23:00:37.678Z,10.05
2022-11-15T23:02:39.704Z,10.02
2022-11-15T23:04:47.067Z,10.98
2022-11-15T23:06:50.279Z,10.55
2022-11-15T23:08:53.811Z,11.30
2022-11-15T23:11:20.769Z,10.50
2022-11-15T23:13:26.972Z,9.95
2022-11-15T23:15:49.972Z,10.38
2022-11-15T23:17:54.326Z,10.98
2022-11-15T23:19:56.442Z,10.77
2022-11-15T23:22:16.838Z,10.48
2022-11-15T23:24:24.636Z,10.68
2022-11-15T23:26:27.717Z,10.48
2022-11-15T23:28:34.802Z,12.05
2022-11-15T23:30:59.448Z,10.75
2022-11-15T23:33:23.349Z,11.32
2022-11-15T23:35:25.315Z,11.32
2022-11-15T23:37:28.465Z,11.40
2022-11-15T23:39:30.453Z,12.27
2022-11-15T23:41:35.472Z,13.32
2022-11-15T23:43:37.373Z,13.65
2022-11-15T23:45:41.736Z,12.60
2022-11-15T23:47:44.194Z,13.13
2022-11-15T23:49:55.053Z,13.27
2022-11-15T23:51:57.068Z,14.20
2022-11-15T23:53:59.123Z,13.55
2022-11-15T23:56:05.436Z,12.80
2022-11-15T23:58:08.410Z,12.98
